Time;durP1;ratioP1;P1;durP2;ratioP2;P2;SDS_P1;SDS_P2;PMS_P1;PMS_P2;Temp;Humidity;BMP_temperature;BMP_pressure;BME280_temperature;BME280_humidity;BME280_pressure;Samples;Min_cycle;Max_cycle;Signal;HPM_P1;HPM_P2
2023/09/06 04:31:51;;;;;;;0.10;0.00;;;21.40;73.90;;;;;;5248595;23;20095;-81
2023/09/06 04:34:16;;;;;;;0.00;0.00;;;21.30;74.30;;;;;;4968952;28;20039;-81
2023/09/06 04:36:42;;;;;;;0.05;0.05;;;21.30;74.50;;;;;;4948344;28;20118;-81
2023/09/06 04:39:08;;;;;;;0.40;0.10;;;21.30;74.60;;;;;;4959546;28;20122;-81
2023/09/06 04:41:33;;;;;;;0.00;0.00;;;21.30;74.60;;;;;;4932457;29;20087;-81
2023/09/06 04:43:59;;;;;;;0.00;0.00;;;21.30;74.40;;;;;;4938416;29;20027;-82
2023/09/06 04:46:24;;;;;;;0.00;0.00;;;21.30;74.10;;;;;;4943274;29;20050;-83
2023/09/06 04:48:50;;;;;;;0.00;0.00;;;21.30;74.60;;;;;;4942730;28;20023;-82
2023/09/06 04:51:16;;;;;;;0.00;0.00;;;21.20;74.60;;;;;;4957344;29;20035;-82
2023/09/06 04:53:41;;;;;;;0.00;0.00;;;21.20;74.90;;;;;;4945896;29;20035;-83
2023/09/06 04:56:07;;;;;;;0.10;0.10;;;21.20;74.80;;;;;;4937859;29;20035;-81
2023/09/06 04:58:33;;;;;;;0.00;0.00;;;21.20;74.80;;;;;;4937780;29;20024;-82
2023/09/06 05:01:06;;;;;;;0.00;0.00;;;21.20;74.50;;;;;;4934283;29;20030;-84
2023/09/06 05:03:33;;;;;;;0.00;0.00;;;21.20;74.30;;;;;;4934795;29;20102;-82
2023/09/06 05:06:00;;;;;;;0.10;0.10;;;21.20;74.50;;;;;;4962216;28;20118;-79
2023/09/06 05:08:25;;;;;;;0.10;0.10;;;21.20;74.50;;;;;;4950893;29;20039;-77
2023/09/06 05:10:51;;;;;;;0.10;0.10;;;21.20;74.70;;;;;;4957229;29;20441;-80
2023/09/06 05:13:18;;;;;;;0.00;0.00;;;21.20;74.80;;;;;;4956957;29;20027;-80
2023/09/06 05:15:46;;;;;;;0.10;0.10;;;21.20;74.60;;;;;;4951874;29;20379;-82
2023/09/06 05:18:14;;;;;;;0.03;0.03;;;21.20;74.60;;;;;;4937563;29;20070;-80
2023/09/06 05:20:40;;;;;;;0.00;0.00;;;21.20;74.60;;;;;;4921354;29;20024;-83
2023/09/06 05:23:11;;;;;;;0.10;0.10;;;21.20;74.80;;;;;;4937708;29;20066;-83
2023/09/06 05:25:37;;;;;;;0.00;0.00;;;21.10;74.90;;;;;;4951059;29;20493;-80
2023/09/06 05:28:05;;;;;;;0.00;0.00;;;21.00;75.00;;;;;;4957123;29;20035;-83
2023/09/06 05:30:34;;;;;;;0.08;0.08;;;21.00;75.00;;;;;;4956688;28;20050;-83
2023/09/06 05:32:59;;;;;;;0.00;0.00;;;21.00;75.10;;;;;;4942502;29;20093;-81
2023/09/06 05:35:26;;;;;;;0.08;0.05;;;21.00;75.00;;;;;;4960383;29;20499;-80
2023/09/06 05:37:52;;;;;;;0.10;0.10;;;21.00;74.90;;;;;;4960436;29;20030;-81
2023/09/06 05:40:24;;;;;;;0.05;0.05;;;21.00;75.10;;;;;;4949359;28;20504;-81
2023/09/06 05:42:51;;;;;;;0.00;0.00;;;21.00;75.20;;;;;;4940382;28;20110;-81
2023/09/06 05:45:18;;;;;;;0.00;0.00;;;21.00;75.10;;;;;;4959507;28;20063;-83
2023/09/06 05:47:46;;;;;;;0.00;0.00;;;21.00;75.20;;;;;;4940659;29;20038;-80
2023/09/06 05:50:12;;;;;;;0.10;0.10;;;21.00;75.10;;;;;;4940567;29;20031;-79
2023/09/06 05:52:38;;;;;;;0.03;0.00;;;21.00;75.30;;;;;;4958776;29;20103;-79
2023/09/06 05:55:04;;;;;;;0.10;0.10;;;21.00;75.30;;;;;;4959140;29;20059;-79
2023/09/06 05:57:33;;;;;;;0.00;0.00;;;21.00;75.10;;;;;;4940460;29;20576;-79
2023/09/06 06:00:00;;;;;;;0.00;0.00;;;21.10;74.70;;;;;;4941585;29;20024;-79
2023/09/06 06:02:26;;;;;;;0.10;0.10;;;21.30;74.40;;;;;;4955071;28;20031;-79
2023/09/06 06:04:52;;;;;;;0.00;0.00;;;21.30;74.30;;;;;;4960214;29;20031;-77
2023/09/06 06:07:19;;;;;;;0.10;0.10;;;21.30;74.50;;;;;;4943031;29;20038;-78
2023/09/06 06:09:45;;;;;;;0.10;0.10;;;21.30;74.50;;;;;;4941946;29;20043;-78
2023/09/06 06:12:11;;;;;;;0.10;0.10;;;21.30;74.70;;;;;;4957991;29;20039;-78
2023/09/06 06:14:37;;;;;;;0.10;0.00;;;21.30;74.80;;;;;;4953110;29;20038;-78
2023/09/06 06:17:05;;;;;;;0.10;0.10;;;21.30;74.50;;;;;;4956076;29;20031;-77
2023/09/06 06:19:32;;;;;;;0.00;0.00;;;21.40;74.30;;;;;;4958931;29;20028;-77
2023/09/06 06:21:59;;;;;;;0.22;0.10;;;21.50;74.20;;;;;;4958687;28;20902;-77
2023/09/06 06:24:25;;;;;;;0.00;0.00;;;21.50;73.70;;;;;;4954433;29;20106;-78
2023/09/06 06:26:51;;;;;;;0.00;0.00;;;21.60;73.90;;;;;;4959154;29;20074;-77
2023/09/06 06:29:16;;;;;;;0.00;0.00;;;21.50;74.20;;;;;;4958857;29;20038;-77
2023/09/06 06:31:44;;;;;;;0.10;0.10;;;21.50;74.30;;;;;;4940217;29;20086;-77
2023/09/06 06:34:10;;;;;;;0.10;0.10;;;21.50;74.60;;;;;;4959390;29;20023;-77
2023/09/06 06:36:36;;;;;;;0.00;0.00;;;21.60;74.50;;;;;;4939264;29;20035;-78
2023/09/06 06:39:01;;;;;;;0.00;0.00;;;21.70;74.40;;;;;;4940129;29;20497;-77
2023/09/06 06:41:27;;;;;;;0.00;0.00;;;21.70;74.40;;;;;;4948389;28;20553;-77
2023/09/06 06:43:53;;;;;;;0.10;0.10;;;21.80;74.30;;;;;;4939146;29;20102;-77
2023/09/06 06:46:30;;;;;;;0.00;0.00;;;21.80;74.20;;;;;;4938737;29;20134;-78
2023/09/06 06:48:56;;;;;;;0.10;0.10;;;21.90;74.30;;;;;;4939732;29;20024;-77
2023/09/06 06:51:34;;;;;;;0.03;0.03;;;21.90;74.40;;;;;;4953823;29;20024;-77
2023/09/06 06:54:02;;;;;;;0.03;0.03;;;22.00;74.20;;;;;;4954354;29;20474;-77
2023/09/06 06:56:27;;;;;;;0.17;0.10;;;22.10;74.00;;;;;;4947224;29;20074;-78
2023/09/06 06:58:53;;;;;;;0.10;0.10;;;22.20;74.00;;;;;;4957543;28;20023;-76
2023/09/06 07:01:20;;;;;;;0.10;0.10;;;22.30;73.80;;;;;;4923053;29;20036;-77
2023/09/06 07:03:46;;;;;;;0.13;0.10;;;22.40;74.00;;;;;;4955695;29;20466;-78
2023/09/06 07:06:12;;;;;;;0.10;0.10;;;22.50;74.50;;;;;;4951345;29;20067;-77
2023/09/06 07:08:38;;;;;;;0.10;0.10;;;22.60;74.00;;;;;;4939811;29;20466;-77
2023/09/06 07:11:05;;;;;;;0.05;0.05;;;22.70;74.10;;;;;;4938611;29;20028;-78
2023/09/06 07:13:31;;;;;;;0.22;0.10;;;22.80;74.00;;;;;;4947492;29;20034;-77
2023/09/06 07:15:56;;;;;;;0.10;0.10;;;22.90;73.50;;;;;;4945187;29;20035;-78
2023/09/06 07:18:22;;;;;;;0.00;0.00;;;23.00;73.30;;;;;;4939483;29;20063;-78
2023/09/06 07:20:48;;;;;;;0.10;0.10;;;23.20;73.30;;;;;;4939413;29;20035;-77
2023/09/06 07:23:14;;;;;;;0.10;0.10;;;23.30;73.40;;;;;;4939476;29;20566;-77
2023/09/06 07:25:44;;;;;;;0.10;0.10;;;23.40;72.90;;;;;;4953114;29;20039;-78
2023/09/06 07:28:09;;;;;;;0.10;0.10;;;23.70;72.80;;;;;;4939579;29;20142;-77
2023/09/06 07:30:35;;;;;;;0.03;0.03;;;23.80;73.20;;;;;;4939067;29;20087;-77
2023/09/06 07:33:01;;;;;;;0.10;0.10;;;23.90;73.00;;;;;;4949122;29;20494;-78
2023/09/06 07:35:27;;;;;;;0.10;0.10;;;24.00;72.70;;;;;;4958448;29;20030;-77
2023/09/06 07:37:53;;;;;;;0.10;0.10;;;24.50;71.70;;;;;;4941159;29;20023;-77
2023/09/06 07:40:19;;;;;;;0.20;0.20;;;24.90;70.30;;;;;;4962971;28;20058;-78
2023/09/06 07:42:45;;;;;;;0.20;0.20;;;25.50;68.80;;;;;;4977657;28;20034;-78
2023/09/06 07:45:11;;;;;;;0.10;0.10;;;26.10;67.40;;;;;;4977612;28;20041;-78
2023/09/06 07:47:37;;;;;;;0.10;0.10;;;26.30;65.30;;;;;;4977427;28;20023;-78
2023/09/06 07:50:06;;;;;;;0.10;0.10;;;26.20;66.10;;;;;;4959779;28;20035;-78
2023/09/06 07:52:31;;;;;;;0.00;0.00;;;26.00;66.30;;;;;;4938904;29;20032;-78
2023/09/06 07:54:58;;;;;;;0.08;0.08;;;25.90;66.40;;;;;;4938477;29;20965;-78
2023/09/06 07:57:24;;;;;;;0.10;0.10;;;25.90;67.20;;;;;;4938872;29;20106;-77
2023/09/06 07:59:50;;;;;;;0.10;0.10;;;25.80;67.20;;;;;;4944326;29;20066;-78
2023/09/06 08:02:16;;;;;;;0.00;0.00;;;25.80;67.90;;;;;;4957896;29;20027;-77
2023/09/06 08:04:41;;;;;;;0.10;0.10;;;25.90;68.60;;;;;;4945596;29;20032;-78
2023/09/06 08:07:08;;;;;;;0.05;0.05;;;26.00;68.00;;;;;;4938672;29;20487;-78
2023/09/06 08:09:34;;;;;;;0.10;0.10;;;26.00;68.20;;;;;;4938511;29;20039;-78
2023/09/06 08:12:00;;;;;;;0.00;0.00;;;26.00;68.00;;;;;;4938740;29;20119;-78
2023/09/06 08:14:26;;;;;;;0.00;0.00;;;25.90;68.50;;;;;;4938544;29;20071;-77
2023/09/06 08:16:51;;;;;;;0.10;0.10;;;25.90;69.00;;;;;;4938290;29;20024;-78
2023/09/06 08:19:17;;;;;;;0.00;0.00;;;25.80;69.10;;;;;;4938827;29;20023;-78
2023/09/06 08:21:43;;;;;;;0.10;0.10;;;25.80;69.40;;;;;;4937590;29;20052;-78
2023/09/06 08:24:08;;;;;;;0.10;0.10;;;25.90;69.20;;;;;;4940052;29;20050;-78
2023/09/06 08:26:36;;;;;;;0.00;0.00;;;25.90;70.00;;;;;;4957614;29;20364;-77
2023/09/06 08:29:02;;;;;;;0.05;0.05;;;25.90;70.30;;;;;;4938406;29;20028;-78
2023/09/06 08:31:28;;;;;;;0.00;0.00;;;26.00;69.50;;;;;;4938282;29;20059;-78
2023/09/06 08:33:53;;;;;;;0.10;0.10;;;26.00;70.30;;;;;;4953400;29;20380;-78
2023/09/06 08:36:19;;;;;;;0.10;0.10;;;26.30;70.20;;;;;;4938265;29;20035;-78
2023/09/06 08:38:44;;;;;;;0.10;0.10;;;26.40;69.70;;;;;;4938118;29;20019;-78
2023/09/06 08:41:10;;;;;;;0.10;0.10;;;26.60;68.40;;;;;;4953641;28;20033;-78
2023/09/06 08:43:42;;;;;;;0.10;0.10;;;26.80;67.90;;;;;;4976945;28;20034;-78
2023/09/06 08:46:30;;;;;;;0.00;0.00;;;27.00;67.20;;;;;;4954677;28;20462;-78
2023/09/06 08:48:58;;;;;;;0.05;0.05;;;27.10;66.60;;;;;;4938202;29;20060;-78
2023/09/06 08:51:24;;;;;;;0.10;0.10;;;27.30;66.20;;;;;;4938101;29;20027;-78
2023/09/06 08:53:52;;;;;;;0.10;0.10;;;27.40;65.40;;;;;;4938140;29;20032;-78
2023/09/06 08:56:19;;;;;;;0.10;0.10;;;27.60;65.20;;;;;;4938235;29;20031;-78
2023/09/06 08:58:44;;;;;;;0.10;0.10;;;27.70;64.30;;;;;;4937985;29;20426;-78
2023/09/06 09:01:10;;;;;;;0.10;0.10;;;27.80;63.50;;;;;;4951120;29;20027;-78
2023/09/06 09:03:36;;;;;;;0.10;0.10;;;27.80;62.60;;;;;;4944762;29;20031;-78
2023/09/06 09:06:09;;;;;;;0.00;0.00;;;27.90;61.60;;;;;;4958011;28;20027;-78
2023/09/06 09:08:35;;;;;;;0.00;0.00;;;28.10;61.80;;;;;;4953762;29;20024;-78
2023/09/06 09:11:15;;;;;;;0.10;0.10;;;28.30;62.50;;;;;;4941979;29;20514;-78
2023/09/06 09:13:41;;;;;;;0.08;0.08;;;28.40;60.40;;;;;;4948482;29;20023;-78
2023/09/06 09:16:12;;;;;;;0.10;0.10;;;28.40;60.60;;;;;;4959728;29;20034;-78
2023/09/06 09:18:40;;;;;;;0.00;0.00;;;28.20;60.40;;;;;;4925765;29;20490;-78
2023/09/06 09:21:11;;;;;;;0.00;0.00;;;28.10;59.80;;;;;;4941867;29;20544;-78
2023/09/06 09:23:44;;;;;;;0.10;0.10;;;28.00;60.60;;;;;;4941397;29;20067;-78
2023/09/06 09:26:10;;;;;;;0.03;0.03;;;28.00;60.50;;;;;;4959300;29;20031;-78
2023/09/06 09:28:37;;;;;;;0.13;0.08;;;28.00;61.10;;;;;;4960840;29;20097;-78
2023/09/06 09:31:02;;;;;;;0.10;0.10;;;28.10;61.10;;;;;;4960628;29;20537;-78
2023/09/06 09:33:29;;;;;;;0.10;0.10;;;28.10;60.90;;;;;;4955767;29;20035;-78
2023/09/06 09:35:56;;;;;;;0.00;0.00;;;28.20;59.50;;;;;;4943385;29;20042;-78
2023/09/06 09:38:21;;;;;;;0.08;0.08;;;28.30;59.90;;;;;;4960707;29;20033;-78
2023/09/06 09:41:04;;;;;;;0.03;0.03;;;28.30;59.40;;;;;;4966456;28;20082;-78
2023/09/06 09:43:30;;;;;;;0.10;0.10;;;28.40;59.20;;;;;;4979784;28;20027;-78
2023/09/06 09:45:56;;;;;;;0.10;0.10;;;28.40;58.20;;;;;;4979620;28;20037;-77
2023/09/06 09:48:24;;;;;;;0.08;0.08;;;28.50;58.30;;;;;;4964126;28;20070;-78
2023/09/06 09:50:54;;;;;;;0.00;0.00;;;28.40;57.20;;;;;;4941265;29;20031;-78
2023/09/06 09:53:25;;;;;;;0.10;0.10;;;28.30;57.00;;;;;;4940758;29;20035;-78
2023/09/06 09:55:55;;;;;;;0.10;0.10;;;28.30;57.20;;;;;;4941155;29;20054;-78
2023/09/06 09:58:21;;;;;;;0.20;0.10;;;28.40;57.40;;;;;;4941195;29;20083;-77
2023/09/06 10:00:50;;;;;;;0.00;0.00;;;28.50;57.30;;;;;;4941063;29;20110;-78
2023/09/06 10:03:17;;;;;;;0.00;0.00;;;28.70;57.60;;;;;;4941737;29;20041;-78
2023/09/06 10:05:45;;;;;;;0.10;0.10;;;28.80;56.50;;;;;;4942684;29;20097;-78
2023/09/06 10:08:12;;;;;;;0.10;0.10;;;28.90;54.30;;;;;;4942930;29;20086;-78
2023/09/06 10:10:39;;;;;;;0.10;0.10;;;29.00;54.30;;;;;;4942451;29;20127;-78
2023/09/06 10:13:07;;;;;;;0.00;0.00;;;29.20;54.40;;;;;;4940670;29;20114;-78
2023/09/06 10:15:34;;;;;;;0.00;0.00;;;29.20;53.50;;;;;;4940806;29;20130;-78
2023/09/06 10:18:01;;;;;;;0.10;0.10;;;29.30;52.30;;;;;;4951699;28;20020;-78
2023/09/06 10:20:30;;;;;;;0.10;0.10;;;29.30;52.00;;;;;;4940506;29;20075;-78
2023/09/06 10:22:57;;;;;;;0.00;0.00;;;29.40;51.40;;;;;;4940587;29;20035;-78
2023/09/06 10:25:26;;;;;;;0.00;0.00;;;29.40;52.50;;;;;;4941861;29;20387;-78
2023/09/06 10:27:54;;;;;;;0.00;0.00;;;29.30;51.70;;;;;;4939292;29;20110;-78
2023/09/06 10:30:34;;;;;;;0.03;0.03;;;29.30;52.10;;;;;;4940226;29;20032;-78
2023/09/06 10:33:02;;;;;;;0.10;0.10;;;29.40;50.40;;;;;;4949934;29;20033;-78
2023/09/06 10:35:31;;;;;;;0.00;0.00;;;29.60;50.50;;;;;;4942567;29;20474;-78
2023/09/06 10:38:16;;;;;;;0.10;0.10;;;29.70;50.30;;;;;;4954212;29;20024;-78
2023/09/06 10:40:47;;;;;;;0.10;0.10;;;29.80;50.50;;;;;;4958776;28;20084;-78
2023/09/06 10:43:13;;;;;;;0.00;0.00;;;29.90;49.30;;;;;;4973945;28;20521;-78
2023/09/06 10:45:40;;;;;;;0.10;0.10;;;30.00;46.80;;;;;;4954804;28;20023;-81
2023/09/06 10:48:12;;;;;;;0.10;0.10;;;30.00;47.20;;;;;;4956675;28;20482;-81
2023/09/06 10:50:37;;;;;;;0.10;0.10;;;30.00;46.50;;;;;;4958391;29;20069;-82
2023/09/06 10:53:04;;;;;;;0.10;0.10;;;29.90;46.50;;;;;;4958865;29;20035;-82
2023/09/06 10:55:44;;;;;;;0.00;0.00;;;30.00;46.80;;;;;;4956906;29;20659;-80
2023/09/06 10:58:10;;;;;;;0.10;0.10;;;30.00;47.30;;;;;;4940196;29;20498;-81
2023/09/06 11:00:37;;;;;;;0.10;0.10;;;30.00;47.80;;;;;;4923572;29;20020;-81
2023/09/06 11:03:13;;;;;;;0.03;0.03;;;29.90;47.90;;;;;;4931355;29;20380;-84
2023/09/06 11:05:39;;;;;;;0.00;0.00;;;30.00;47.60;;;;;;4943112;29;20035;-82
2023/09/06 11:08:08;;;;;;;0.00;0.00;;;30.00;48.20;;;;;;4942134;29;20051;-81
2023/09/06 11:10:35;;;;;;;0.00;0.00;;;30.00;48.60;;;;;;4939996;29;20019;-80
2023/09/06 11:13:18;;;;;;;0.00;0.00;;;29.90;49.10;;;;;;4940857;29;20123;-79
2023/09/06 11:15:44;;;;;;;0.00;0.00;;;29.90;47.70;;;;;;4940670;29;20475;-83
2023/09/06 11:18:10;;;;;;;0.00;0.00;;;30.10;48.60;;;;;;4952380;29;20034;-82
2023/09/06 11:20:37;;;;;;;0.10;0.10;;;30.30;48.20;;;;;;4959080;28;20027;-81
2023/09/06 11:23:03;;;;;;;0.13;0.10;;;30.60;48.60;;;;;;4959082;28;20094;-80
2023/09/06 11:25:34;;;;;;;0.10;0.10;;;30.70;48.90;;;;;;4948626;28;20032;-80
2023/09/06 11:28:13;;;;;;;0.08;0.03;;;30.80;46.60;;;;;;4939291;29;20132;-80
2023/09/06 11:30:39;;;;;;;0.10;0.10;;;30.90;46.60;;;;;;4938797;29;20126;-80
2023/09/06 11:33:07;;;;;;;0.00;0.00;;;30.80;46.60;;;;;;4951040;28;20042;-79
2023/09/06 11:35:38;;;;;;;0.10;0.10;;;30.70;46.30;;;;;;4942580;29;20050;-80
2023/09/06 11:38:05;;;;;;;0.00;0.00;;;30.70;47.20;;;;;;4937847;29;20036;-80
2023/09/06 11:40:34;;;;;;;0.10;0.10;;;30.80;48.00;;;;;;4955226;28;20089;-80
2023/09/06 11:43:04;;;;;;;0.10;0.10;;;30.90;47.20;;;;;;4961147;28;20367;-80
2023/09/06 11:45:33;;;;;;;0.00;0.00;;;31.00;47.20;;;;;;4938056;29;20091;-79
2023/09/06 11:48:04;;;;;;;0.00;0.00;;;31.00;46.70;;;;;;4952609;29;20034;-78
2023/09/06 11:50:32;;;;;;;0.00;0.00;;;30.90;46.90;;;;;;4958230;29;20027;-79
2023/09/06 11:53:04;;;;;;;0.10;0.10;;;30.90;46.90;;;;;;4940851;29;20023;-82
2023/09/06 11:55:34;;;;;;;0.00;0.00;;;31.10;47.70;;;;;;4940894;29;20027;-86
2023/09/06 11:58:00;;;;;;;0.10;0.10;;;31.20;47.20;;;;;;4954476;29;20035;-82
2023/09/06 12:00:46;;;;;;;0.13;0.10;;;31.30;47.20;;;;;;4953552;29;20130;-82
2023/09/06 12:03:13;;;;;;;0.10;0.10;;;31.40;47.50;;;;;;4938008;29;20027;-82
2023/09/06 12:05:50;;;;;;;0.03;0.03;;;31.60;47.80;;;;;;4956279;29;20031;-82
2023/09/06 12:08:21;;;;;;;0.00;0.00;;;31.60;47.00;;;;;;4921334;29;20028;-82
2023/09/06 12:10:50;;;;;;;0.00;0.00;;;31.50;47.30;;;;;;4938711;29;20039;-82
2023/09/06 12:13:34;;;;;;;0.10;0.00;;;31.30;47.90;;;;;;4954415;29;20438;-82
2023/09/06 12:16:01;;;;;;;0.00;0.00;;;31.20;47.60;;;;;;4938673;29;20729;-82
2023/09/06 12:18:30;;;;;;;0.03;0.03;;;31.00;48.40;;;;;;4936563;29;20030;-81
2023/09/06 12:20:56;;;;;;;0.10;0.10;;;31.00;48.60;;;;;;4937077;29;20028;-82
2023/09/06 12:23:23;;;;;;;0.10;0.10;;;31.00;47.80;;;;;;4936135;29;20031;-82
2023/09/06 12:25:48;;;;;;;0.20;0.20;;;31.00;47.90;;;;;;4956075;29;20561;-81
2023/09/06 12:28:14;;;;;;;0.03;0.03;;;31.10;47.70;;;;;;4939288;29;20075;-82
2023/09/06 12:30:40;;;;;;;0.10;0.10;;;31.20;47.90;;;;;;4937708;29;20420;-82
2023/09/06 12:33:05;;;;;;;0.10;0.10;;;31.20;48.50;;;;;;4922824;29;20038;-82
2023/09/06 12:35:38;;;;;;;0.00;0.00;;;31.20;48.90;;;;;;4946374;29;20058;-81
2023/09/06 12:38:07;;;;;;;;;;;31.10;48.50;;;;;;4937092;29;20038;-82
2023/09/06 12:40:33;;;;;;;0.00;0.00;;;31.10;48.50;;;;;;4955362;28;19935;-82
2023/09/06 12:43:00;;;;;;;0.00;0.00;;;31.30;48.80;;;;;;4953171;28;20030;-82
2023/09/06 12:45:30;;;;;;;0.00;0.00;;;31.30;48.80;;;;;;4956697;29;20102;-82
2023/09/06 12:48:00;;;;;;;0.00;0.00;;;31.20;48.40;;;;;;4938883;29;20118;-81
2023/09/06 12:50:27;;;;;;;0.00;0.00;;;31.10;48.50;;;;;;4939949;29;20458;-81
2023/09/06 12:52:54;;;;;;;0.00;0.00;;;31.10;48.90;;;;;;4939831;29;20027;-82
2023/09/06 12:55:20;;;;;;;0.05;0.05;;;31.00;49.10;;;;;;4946872;29;20032;-81
2023/09/06 12:57:46;;;;;;;0.10;0.10;;;31.00;49.10;;;;;;4937056;29;20091;-81
2023/09/06 13:00:13;;;;;;;0.10;0.10;;;31.00;49.00;;;;;;4938153;29;20032;-81
2023/09/06 13:02:42;;;;;;;0.08;0.08;;;31.20;49.70;;;;;;4927463;29;20066;-81
2023/09/06 13:05:08;;;;;;;0.10;0.10;;;31.10;49.00;;;;;;4943927;29;20074;-81
2023/09/06 13:07:35;;;;;;;0.10;0.10;;;31.30;49.00;;;;;;4939103;29;20046;-81
2023/09/06 13:10:03;;;;;;;0.00;0.00;;;31.60;49.00;;;;;;4944535;28;20130;-82
2023/09/06 13:12:29;;;;;;;0.00;0.00;;;31.60;48.80;;;;;;4951529;29;20026;-81
2023/09/06 13:14:56;;;;;;;0.10;0.10;;;31.60;47.50;;;;;;4942028;29;20155;-81
2023/09/06 13:17:22;;;;;;;0.10;0.10;;;31.60;48.10;;;;;;4928046;29;20035;-81
2023/09/06 13:19:48;;;;;;;0.10;0.10;;;31.70;48.00;;;;;;4938156;29;20031;-82
2023/09/06 13:22:13;;;;;;;0.13;0.10;;;31.80;47.90;;;;;;4951391;29;20023;-81
2023/09/06 13:24:39;;;;;;;0.10;0.10;;;31.70;47.90;;;;;;4953795;29;20042;-81
2023/09/06 13:27:05;;;;;;;0.30;0.10;;;31.60;48.60;;;;;;4939520;29;20031;-81
2023/09/06 13:29:33;;;;;;;0.10;0.10;;;31.50;48.70;;;;;;4938993;29;20031;-81
2023/09/06 13:31:59;;;;;;;0.10;0.10;;;31.50;48.70;;;;;;4955231;29;20068;-81
2023/09/06 13:34:28;;;;;;;0.00;0.00;;;31.80;47.50;;;;;;4939631;29;20067;-81
2023/09/06 13:36:54;;;;;;;0.10;0.10;;;32.00;47.70;;;;;;4953471;29;20055;-81
2023/09/06 13:39:20;;;;;;;0.10;0.10;;;32.10;47.70;;;;;;4938812;29;20030;-81
2023/09/06 13:41:47;;;;;;;0.10;0.10;;;32.30;47.50;;;;;;4958883;28;20019;-81
2023/09/06 13:44:13;;;;;;;0.10;0.10;;;32.30;47.50;;;;;;4951069;29;20062;-81
2023/09/06 13:46:38;;;;;;;0.10;0.10;;;32.40;47.60;;;;;;4955877;29;20051;-81
2023/09/06 13:49:07;;;;;;;0.20;0.10;;;32.30;46.90;;;;;;4952959;29;20047;-82
2023/09/06 13:51:39;;;;;;;0.10;0.10;;;32.10;45.70;;;;;;4921072;29;20398;-81
2023/09/06 13:54:05;;;;;;;;;;;32.10;46.00;;;;;;4960231;29;20043;-82
2023/09/06 13:56:32;;;;;;;0.10;0.10;;;32.30;46.10;;;;;;4957001;29;19919;-82
2023/09/06 13:58:58;;;;;;;0.10;0.10;;;32.40;46.50;;;;;;4959285;29;20019;-81
2023/09/06 14:01:25;;;;;;;0.17;0.10;;;32.60;46.10;;;;;;4960104;29;20023;-82
2023/09/06 14:03:50;;;;;;;0.10;0.10;;;32.60;46.10;;;;;;4942774;29;20023;-82
2023/09/06 14:06:16;;;;;;;0.10;0.10;;;32.60;45.90;;;;;;4957467;29;20038;-82
2023/09/06 14:08:42;;;;;;;0.10;0.10;;;32.50;45.90;;;;;;4942860;29;20654;-82
2023/09/06 14:11:08;;;;;;;0.00;0.00;;;32.50;45.90;;;;;;4942876;29;20023;-81
2023/09/06 14:13:34;;;;;;;0.22;0.10;;;32.40;45.60;;;;;;4938935;29;20040;-82
2023/09/06 14:16:03;;;;;;;0.10;0.10;;;32.30;46.30;;;;;;4951638;29;20466;-82
2023/09/06 14:18:28;;;;;;;0.00;0.00;;;32.10;47.30;;;;;;4956321;29;20070;-82
2023/09/06 14:20:55;;;;;;;0.13;0.10;;;32.00;48.00;;;;;;4959180;29;20490;-83
2023/09/06 14:23:21;;;;;;;0.10;0.10;;;31.90;47.60;;;;;;4956413;29;20033;-82
2023/09/06 14:25:47;;;;;;;0.10;0.10;;;31.80;47.90;;;;;;4958910;29;20027;-83
2023/09/06 14:28:13;;;;;;;0.10;0.10;;;31.70;48.90;;;;;;4956997;29;20034;-83
2023/09/06 14:30:43;;;;;;;0.20;0.15;;;31.60;48.60;;;;;;4958819;29;20051;-82
2023/09/06 14:33:09;;;;;;;0.20;0.05;;;31.40;49.20;;;;;;4957370;28;20498;-84
2023/09/06 14:35:42;;;;;;;0.00;0.00;;;31.30;49.70;;;;;;4941655;29;20110;-81
2023/09/06 14:38:08;;;;;;;0.03;0.03;;;31.30;49.80;;;;;;4945840;28;20031;-82
2023/09/06 14:40:38;;;;;;;0.10;0.10;;;31.30;50.10;;;;;;4958647;29;20066;-81
2023/09/06 14:43:05;;;;;;;0.00;0.00;;;31.30;50.50;;;;;;4953988;28;20028;-82
2023/09/06 14:45:32;;;;;;;0.10;0.10;;;31.30;50.10;;;;;;4939702;29;20024;-82
2023/09/06 14:47:58;;;;;;;0.10;0.10;;;31.40;50.40;;;;;;4942091;29;20692;-82
2023/09/06 14:50:23;;;;;;;0.20;0.10;;;31.50;50.40;;;;;;4950633;29;20028;-82
2023/09/06 14:52:51;;;;;;;0.20;0.10;;;31.60;50.60;;;;;;4941016;28;20119;-79
2023/09/06 14:55:17;;;;;;;0.00;0.00;;;31.70;50.40;;;;;;4955516;29;20102;-80
2023/09/06 14:57:43;;;;;;;0.10;0.10;;;31.80;50.40;;;;;;4958614;29;20023;-80
2023/09/06 15:00:09;;;;;;;0.10;0.10;;;31.80;50.50;;;;;;4954624;29;20073;-80
2023/09/06 15:02:35;;;;;;;0.20;0.10;;;31.90;50.80;;;;;;4938223;29;20051;-80
2023/09/06 15:05:01;;;;;;;0.15;0.15;;;32.00;50.70;;;;;;4956176;28;20039;-79
2023/09/06 15:07:27;;;;;;;0.10;0.10;;;32.20;50.10;;;;;;4953791;28;20046;-83
2023/09/06 15:09:53;;;;;;;0.00;0.00;;;32.30;50.20;;;;;;4940747;29;20035;-82
2023/09/06 15:12:22;;;;;;;0.10;0.10;;;32.30;50.20;;;;;;4939761;29;20061;-82
2023/09/06 15:14:47;;;;;;;0.10;0.10;;;32.30;50.80;;;;;;4939371;29;20500;-81
2023/09/06 15:17:13;;;;;;;0.20;0.10;;;32.10;50.90;;;;;;4940001;29;20019;-82
2023/09/06 15:19:39;;;;;;;0.00;0.00;;;32.00;51.30;;;;;;4939464;29;20033;-82
2023/09/06 15:22:05;;;;;;;0.10;0.10;;;31.90;51.90;;;;;;4940109;29;20055;-82
2023/09/06 15:24:31;;;;;;;0.10;0.10;;;31.80;52.50;;;;;;4942613;29;20191;-82
2023/09/06 15:26:57;;;;;;;0.10;0.10;;;31.70;52.90;;;;;;4939686;29;20062;-82
2023/09/06 15:29:23;;;;;;;0.10;0.10;;;31.50;53.40;;;;;;4955890;29;20399;-84
2023/09/06 15:31:48;;;;;;;0.00;0.00;;;31.40;53.80;;;;;;4954460;29;20058;-81
2023/09/06 15:34:14;;;;;;;0.00;0.00;;;31.30;54.50;;;;;;4954120;29;20082;-81
2023/09/06 15:36:40;;;;;;;0.10;0.10;;;31.30;55.20;;;;;;4957564;29;20031;-81
2023/09/06 15:39:08;;;;;;;0.10;0.10;;;31.20;55.50;;;;;;4954293;29;20051;-81
2023/09/06 15:41:34;;;;;;;0.00;0.00;;;31.10;56.00;;;;;;4958837;28;20489;-81
2023/09/06 15:44:02;;;;;;;0.00;0.00;;;31.10;56.80;;;;;;4940338;29;20027;-81
2023/09/06 15:46:28;;;;;;;0.10;0.10;;;31.10;56.80;;;;;;4955932;29;20394;-81
2023/09/06 15:48:55;;;;;;;0.00;0.00;;;31.10;57.40;;;;;;4957582;29;20115;-81
2023/09/06 15:51:20;;;;;;;0.20;0.10;;;31.20;57.80;;;;;;4957303;29;20015;-81
2023/09/06 15:53:46;;;;;;;0.00;0.00;;;31.20;57.60;;;;;;4956827;29;20545;-81
2023/09/06 15:56:12;;;;;;;0.08;0.08;;;31.20;58.00;;;;;;4948743;29;20023;-81
2023/09/06 15:58:37;;;;;;;0.00;0.00;;;31.10;58.20;;;;;;4951418;29;20057;-81
2023/09/06 16:01:06;;;;;;;0.10;0.10;;;31.10;58.70;;;;;;4954225;29;20038;-81
2023/09/06 16:03:32;;;;;;;0.10;0.10;;;31.10;59.00;;;;;;4948408;28;20020;-80
2023/09/06 16:05:58;;;;;;;0.00;0.00;;;31.00;59.10;;;;;;4956894;28;20405;-80
2023/09/06 16:08:24;;;;;;;0.08;0.08;;;30.90;59.50;;;;;;4955449;29;20039;-79
2023/09/06 16:10:52;;;;;;;0.10;0.03;;;30.90;60.10;;;;;;4948933;29;20482;-81
2023/09/06 16:13:17;;;;;;;0.03;0.00;;;30.80;60.30;;;;;;4938689;29;20469;-80
2023/09/06 16:15:43;;;;;;;0.10;0.10;;;30.80;60.20;;;;;;4938316;29;20023;-81
2023/09/06 16:18:09;;;;;;;0.00;0.00;;;30.80;60.30;;;;;;4938478;29;20032;-81
2023/09/06 16:20:35;;;;;;;0.00;0.00;;;30.80;60.40;;;;;;4956153;29;20046;-81
2023/09/06 16:23:00;;;;;;;0.00;0.00;;;30.70;60.70;;;;;;4957080;29;20034;-80
2023/09/06 16:25:26;;;;;;;0.10;0.10;;;30.80;60.80;;;;;;4954221;29;20035;-80
2023/09/06 16:27:52;;;;;;;0.10;0.10;;;30.70;61.10;;;;;;4939525;29;20034;-81
2023/09/06 16:30:18;;;;;;;0.00;0.00;;;30.70;61.00;;;;;;4957261;29;20019;-83
2023/09/06 16:32:48;;;;;;;0.10;0.10;;;30.60;61.50;;;;;;4938418;29;20039;-82
2023/09/06 16:35:14;;;;;;;0.00;0.00;;;30.50;61.70;;;;;;4951072;29;20029;-83
2023/09/06 16:37:41;;;;;;;0.00;0.00;;;30.60;61.70;;;;;;4919477;29;20110;-81
2023/09/06 16:40:11;;;;;;;0.10;0.00;;;30.60;62.10;;;;;;4960547;28;20050;-81
2023/09/06 16:42:36;;;;;;;0.10;0.10;;;30.50;62.50;;;;;;4954124;29;20105;-80
2023/09/06 16:45:02;;;;;;;0.10;0.10;;;30.40;62.80;;;;;;4946864;28;20105;-82
2023/09/06 16:47:28;;;;;;;0.00;0.00;;;30.30;62.90;;;;;;4941560;28;20044;-82
2023/09/06 16:49:54;;;;;;;0.00;0.00;;;30.30;63.30;;;;;;4938077;29;20036;-82
2023/09/06 16:52:19;;;;;;;0.17;0.10;;;30.20;63.50;;;;;;4944819;28;20117;-84
2023/09/06 16:54:45;;;;;;;0.10;0.10;;;30.20;63.70;;;;;;4955886;29;20568;-80
2023/09/06 16:57:11;;;;;;;0.00;0.00;;;30.10;63.50;;;;;;4937748;29;20602;-78
2023/09/06 16:59:36;;;;;;;0.00;0.00;;;30.20;63.50;;;;;;4946806;28;20027;-82
2023/09/06 17:02:04;;;;;;;0.00;0.00;;;30.20;63.50;;;;;;4955284;29;20030;-79
2023/09/06 17:04:30;;;;;;;0.00;0.00;;;30.10;63.70;;;;;;4938635;29;20038;-79
2023/09/06 17:06:55;;;;;;;0.15;0.10;;;30.20;63.80;;;;;;4937517;29;20027;-78
2023/09/06 17:09:21;;;;;;;0.10;0.10;;;30.10;63.90;;;;;;4956552;29;20102;-82
2023/09/06 17:11:47;;;;;;;0.05;0.05;;;30.10;64.20;;;;;;4956535;29;20046;-80
2023/09/06 17:14:12;;;;;;;0.00;0.00;;;30.00;64.00;;;;;;4956474;29;20035;-79
2023/09/06 17:16:38;;;;;;;0.00;0.00;;;30.10;64.10;;;;;;4938601;29;20027;-81
2023/09/06 17:19:07;;;;;;;0.05;0.05;;;29.90;64.30;;;;;;4955349;29;20549;-79